Forside
METAR-TAF:

METAR-TAF

Lufthavne :

Amritsar, Indien

Breddekreds: 31-38N, længdekreds: 074-52E, højde: 229 m

Aktuelle vejr

Denne rapport blev lavet for 40 minutter siden, kl. 08:00 UTC
Vind 2 kt fra varierende retninger
Temperatur 22°C
Fugtighed 57%
Tryk 1023 hPa
Sigt: 5000 m
Nogle få skyer i en højde af 4000 ft
tåge/dis

METAR: VIAR 220800Z VRB02KT 5000 HZ FEW040 22/13 Q1023 NOSIG

Tid: 14:10 (08:40 UTC)

Vejrudsigter

Denne rapport blev lavet for 40 minutter siden, kl. 08:00 UTC
Foreløbig gælder fra 22 på 09 UTC til 22 på 18 UTC
Vind 2 kt fra varierende retninger
Sigt: 5000 m
tåge/dis
ændring
fra 22 på 15 UTC til 22 på 17 UTC
Sigt: 3000 m
Nogle få skyer i en højde af 4000 ft
dis

TAF: VIAR 220800Z 2209/2218 VRB02KT 5000 HZ NSC BECMG 2215/2217 3000 BR FEW040

Vejrobservationer og prognoser fra mere end 4000 lufthavne (METAR og TAF).

De gule og røde prikker repræsenterer de meteorologiske stationer.

Flyt musen over at se navnet på stationen.

Så klik over at se vejr observationer og prognoser.

At skifte det kort: Klik på de grønne knapper med et sort kors for at zoome ind; på den grønne knap med en bindestreg for at zoome ud; eller på de grønne pile for tilstødende kort.


METAR-TAF: